Hailar, China
Current Conditions -  °F | °C
As of 1:30 PM on Tuesday 21 Oct 2014 (Local Time) from UIAA Reporting Station
Broken Clouds Broken Clouds  
Wind Chill: 27°   Ceiling: 20000
Heat Index: 27°   Visibility: 6mi
Dew Point:   Wind: 0mph
Humidity: 34%   Direction: NA
Pressure: 30.12"   Gusts: NA
Location:  49.23°N, 119.71°E
Report Text: UIAA 210530Z 00000MPS 9999 BKN200 M03/M17 Q1020 NOSIG RMKQFE706 29CLRD70
Loading
Personal Weather Stations






























Interactive Weather Map
Tropical Storm Tracking
New forecast layout! Learn more

10-Day Weather Forecast

Advertisements
Track Severe Weather on mobile